sensor_id;sensor_type;location;lat;lon;timestamp;pressure;altitude;pressure_sealevel;temperature;humidity
72612;BME280;60655;52.182;4.474;2024-02-26T00:00:48;99872.56;;;7.01;100.00
72612;BME280;60655;52.182;4.474;2024-02-26T00:02:49;99881.09;;;7.03;100.00
72612;BME280;60655;52.182;4.474;2024-02-26T00:04:49;99878.66;;;7.01;100.00
72612;BME280;60655;52.182;4.474;2024-02-26T00:06:50;99871.19;;;6.98;100.00
72612;BME280;60655;52.182;4.474;2024-02-26T00:08:54;99890.78;;;7.09;100.00
72612;BME280;60655;52.182;4.474;2024-02-26T00:10:55;99886.00;;;6.99;100.00
72612;BME280;60655;52.182;4.474;2024-02-26T00:12:56;99884.75;;;7.02;100.00
72612;BME280;60655;52.182;4.474;2024-02-26T00:14:57;99888.47;;;6.94;100.00
72612;BME280;60655;52.182;4.474;2024-02-26T00:16:59;99884.81;;;6.95;100.00
72612;BME280;60655;52.182;4.474;2024-02-26T00:19:00;99891.81;;;7.08;100.00
72612;BME280;60655;52.182;4.474;2024-02-26T00:21:02;99889.00;;;7.03;100.00
72612;BME280;60655;52.182;4.474;2024-02-26T00:23:04;99883.13;;;7.01;100.00
72612;BME280;60655;52.182;4.474;2024-02-26T00:25:05;99889.81;;;7.03;100.00
72612;BME280;60655;52.182;4.474;2024-02-26T00:27:06;99895.16;;;6.97;100.00
72612;BME280;60655;52.182;4.474;2024-02-26T00:29:07;99896.75;;;6.98;100.00
72612;BME280;60655;52.182;4.474;2024-02-26T00:31:08;99893.91;;;6.99;100.00
72612;BME280;60655;52.182;4.474;2024-02-26T00:33:09;99896.34;;;7.01;100.00
72612;BME280;60655;52.182;4.474;2024-02-26T00:35:10;99880.78;;;6.93;100.00
72612;BME280;60655;52.182;4.474;2024-02-26T00:37:11;99902.56;;;6.88;100.00
72612;BME280;60655;52.182;4.474;2024-02-26T00:39:12;99898.88;;;6.89;100.00
72612;BME280;60655;52.182;4.474;2024-02-26T00:41:13;99908.44;;;6.90;100.00
72612;BME280;60655;52.182;4.474;2024-02-26T00:43:13;99888.97;;;6.85;100.00
72612;BME280;60655;52.182;4.474;2024-02-26T00:45:14;99907.19;;;6.93;100.00
72612;BME280;60655;52.182;4.474;2024-02-26T00:47:16;99900.84;;;6.94;100.00
72612;BME280;60655;52.182;4.474;2024-02-26T00:49:17;99891.22;;;6.81;100.00
72612;BME280;60655;52.182;4.474;2024-02-26T00:51:18;99896.03;;;6.91;100.00
72612;BME280;60655;52.182;4.474;2024-02-26T00:53:19;99893.00;;;6.87;100.00
72612;BME280;60655;52.182;4.474;2024-02-26T00:55:20;99897.78;;;6.97;100.00
72612;BME280;60655;52.182;4.474;2024-02-26T00:57:21;99892.72;;;6.95;100.00
72612;BME280;60655;52.182;4.474;2024-02-26T00:59:21;99897.47;;;6.87;100.00
72612;BME280;60655;52.182;4.474;2024-02-26T01:01:22;99889.78;;;6.85;100.00
72612;BME280;60655;52.182;4.474;2024-02-26T01:03:23;99899.28;;;6.93;100.00
72612;BME280;60655;52.182;4.474;2024-02-26T01:05:24;99905.41;;;6.87;100.00
72612;BME280;60655;52.182;4.474;2024-02-26T01:07:25;99895.53;;;6.75;100.00
72612;BME280;60655;52.182;4.474;2024-02-26T01:09:26;99903.97;;;6.91;100.00
72612;BME280;60655;52.182;4.474;2024-02-26T01:11:27;99908.78;;;6.94;100.00
72612;BME280;60655;52.182;4.474;2024-02-26T01:13:28;99896.88;;;6.85;100.00
72612;BME280;60655;52.182;4.474;2024-02-26T01:15:29;99903.78;;;6.86;100.00
72612;BME280;60655;52.182;4.474;2024-02-26T01:17:29;99910.19;;;6.96;100.00
72612;BME280;60655;52.182;4.474;2024-02-26T01:19:30;99911.00;;;6.97;100.00
72612;BME280;60655;52.182;4.474;2024-02-26T01:21:31;99914.50;;;6.91;100.00
72612;BME280;60655;52.182;4.474;2024-02-26T01:23:32;99916.78;;;6.87;100.00
72612;BME280;60655;52.182;4.474;2024-02-26T01:25:33;99911.69;;;6.86;100.00
72612;BME280;60655;52.182;4.474;2024-02-26T01:27:34;99922.47;;;6.84;100.00
72612;BME280;60655;52.182;4.474;2024-02-26T01:29:35;99931.41;;;6.83;100.00
72612;BME280;60655;52.182;4.474;2024-02-26T01:31:36;99923.31;;;6.78;100.00
72612;BME280;60655;52.182;4.474;2024-02-26T01:33:36;99924.53;;;6.82;100.00
72612;BME280;60655;52.182;4.474;2024-02-26T01:35:37;99923.28;;;6.85;100.00
72612;BME280;60655;52.182;4.474;2024-02-26T01:37:38;99930.66;;;6.76;100.00
72612;BME280;60655;52.182;4.474;2024-02-26T01:39:39;99918.44;;;6.82;100.00
72612;BME280;60655;52.182;4.474;2024-02-26T01:41:43;99922.09;;;6.81;100.00
72612;BME280;60655;52.182;4.474;2024-02-26T01:43:44;99913.81;;;6.70;100.00
72612;BME280;60655;52.182;4.474;2024-02-26T01:45:44;99893.00;;;6.62;100.00
72612;BME280;60655;52.182;4.474;2024-02-26T01:47:45;99911.69;;;6.86;100.00
72612;BME280;60655;52.182;4.474;2024-02-26T01:49:46;99908.72;;;6.75;100.00
72612;BME280;60655;52.182;4.474;2024-02-26T01:51:48;99908.50;;;6.77;100.00
72612;BME280;60655;52.182;4.474;2024-02-26T01:53:49;99903.22;;;6.77;100.00
72612;BME280;60655;52.182;4.474;2024-02-26T01:55:50;99903.06;;;6.72;100.00
72612;BME280;60655;52.182;4.474;2024-02-26T01:57:51;99911.53;;;6.81;100.00
72612;BME280;60655;52.182;4.474;2024-02-26T01:59:52;99901.00;;;6.74;100.00
72612;BME280;60655;52.182;4.474;2024-02-26T02:01:54;99916.19;;;6.85;100.00
72612;BME280;60655;52.182;4.474;2024-02-26T02:03:57;99903.69;;;6.67;100.00
72612;BME280;60655;52.182;4.474;2024-02-26T02:05:59;99915.41;;;6.78;100.00
72612;BME280;60655;52.182;4.474;2024-02-26T02:08:00;99916.25;;;6.72;100.00
72612;BME280;60655;52.182;4.474;2024-02-26T02:10:00;99917.66;;;6.74;100.00
72612;BME280;60655;52.182;4.474;2024-02-26T02:12:01;99922.50;;;6.77;100.00
72612;BME280;60655;52.182;4.474;2024-02-26T02:14:02;99933.50;;;6.74;100.00
72612;BME280;60655;52.182;4.474;2024-02-26T02:16:04;99922.97;;;6.68;100.00
72612;BME280;60655;52.182;4.474;2024-02-26T02:18:06;99941.03;;;6.71;100.00
72612;BME280;60655;52.182;4.474;2024-02-26T02:20:15;99936.16;;;6.68;100.00
72612;BME280;60655;52.182;4.474;2024-02-26T02:22:17;99946.09;;;6.72;100.00
72612;BME280;60655;52.182;4.474;2024-02-26T02:24:18;99935.38;;;6.67;100.00
72612;BME280;60655;52.182;4.474;2024-02-26T02:26:20;99939.47;;;6.63;100.00
72612;BME280;60655;52.182;4.474;2024-02-26T02:28:21;99940.50;;;6.62;100.00
72612;BME280;60655;52.182;4.474;2024-02-26T02:30:25;99946.56;;;6.63;100.00
72612;BME280;60655;52.182;4.474;2024-02-26T02:32:27;99943.63;;;6.77;100.00
72612;BME280;60655;52.182;4.474;2024-02-26T02:34:30;99950.56;;;6.72;100.00
72612;BME280;60655;52.182;4.474;2024-02-26T02:36:32;99956.44;;;6.74;100.00
72612;BME280;60655;52.182;4.474;2024-02-26T02:38:32;99957.22;;;6.81;100.00
72612;BME280;60655;52.182;4.474;2024-02-26T02:40:34;99957.22;;;6.81;100.00
72612;BME280;60655;52.182;4.474;2024-02-26T02:42:35;99963.69;;;6.85;100.00
72612;BME280;60655;52.182;4.474;2024-02-26T02:44:36;99952.56;;;6.76;100.00
72612;BME280;60655;52.182;4.474;2024-02-26T02:46:37;99960.28;;;6.78;100.00
72612;BME280;60655;52.182;4.474;2024-02-26T02:48:38;99960.09;;;6.73;100.00
72612;BME280;60655;52.182;4.474;2024-02-26T02:50:39;99962.50;;;6.81;100.00
72612;BME280;60655;52.182;4.474;2024-02-26T02:52:40;99957.03;;;6.76;100.00
72612;BME280;60655;52.182;4.474;2024-02-26T02:54:40;99959.69;;;6.76;100.00
72612;BME280;60655;52.182;4.474;2024-02-26T02:56:42;99955.03;;;6.71;100.00
72612;BME280;60655;52.182;4.474;2024-02-26T02:58:43;99958.06;;;6.75;100.00
72612;BME280;60655;52.182;4.474;2024-02-26T03:00:44;99974.06;;;6.80;100.00
72612;BME280;60655;52.182;4.474;2024-02-26T03:02:45;99972.31;;;6.67;100.00
72612;BME280;60655;52.182;4.474;2024-02-26T03:04:47;99971.06;;;6.70;100.00
72612;BME280;60655;52.182;4.474;2024-02-26T03:06:49;99976.53;;;6.75;100.00
72612;BME280;60655;52.182;4.474;2024-02-26T03:08:50;99965.84;;;6.63;100.00
72612;BME280;60655;52.182;4.474;2024-02-26T03:10:51;99982.38;;;6.84;100.00
72612;BME280;60655;52.182;4.474;2024-02-26T03:12:53;99980.16;;;6.81;100.00
72612;BME280;60655;52.182;4.474;2024-02-26T03:14:54;99989.69;;;6.82;100.00
72612;BME280;60655;52.182;4.474;2024-02-26T03:16:55;99981.47;;;6.96;100.00
72612;BME280;60655;52.182;4.474;2024-02-26T03:18:56;99976.50;;;6.82;100.00
72612;BME280;60655;52.182;4.474;2024-02-26T03:20:57;99983.00;;;6.79;100.00
72612;BME280;60655;52.182;4.474;2024-02-26T03:22:57;99990.38;;;6.70;100.00
72612;BME280;60655;52.182;4.474;2024-02-26T03:24:58;99987.28;;;6.80;100.00
72612;BME280;60655;52.182;4.474;2024-02-26T03:26:59;99984.28;;;6.70;100.00
72612;BME280;60655;52.182;4.474;2024-02-26T03:29:00;99990.91;;;6.86;100.00
72612;BME280;60655;52.182;4.474;2024-02-26T03:31:03;100001.06;;;6.82;100.00
72612;BME280;60655;52.182;4.474;2024-02-26T03:33:04;100001.47;;;6.86;100.00
72612;BME280;60655;52.182;4.474;2024-02-26T03:35:05;100013.91;;;6.72;100.00
72612;BME280;60655;52.182;4.474;2024-02-26T03:37:07;100002.91;;;6.82;100.00
72612;BME280;60655;52.182;4.474;2024-02-26T03:39:10;100005.97;;;6.78;100.00
72612;BME280;60655;52.182;4.474;2024-02-26T03:41:14;100018.56;;;6.76;100.00
72612;BME280;60655;52.182;4.474;2024-02-26T03:43:16;100017.97;;;6.74;100.00
72612;BME280;60655;52.182;4.474;2024-02-26T03:45:17;100024.47;;;6.72;100.00
72612;BME280;60655;52.182;4.474;2024-02-26T03:47:18;100023.41;;;6.80;100.00
72612;BME280;60655;52.182;4.474;2024-02-26T03:49:19;100022.19;;;6.82;100.00
72612;BME280;60655;52.182;4.474;2024-02-26T03:51:20;100028.09;;;6.77;100.00
72612;BME280;60655;52.182;4.474;2024-02-26T03:53:21;100021.69;;;6.60;100.00
72612;BME280;60655;52.182;4.474;2024-02-26T03:55:22;100025.34;;;6.59;100.00
72612;BME280;60655;52.182;4.474;2024-02-26T03:57:25;100017.44;;;6.59;100.00
72612;BME280;60655;52.182;4.474;2024-02-26T03:59:26;100027.13;;;6.65;100.00
72612;BME280;60655;52.182;4.474;2024-02-26T04:01:27;100033.44;;;6.64;100.00
72612;BME280;60655;52.182;4.474;2024-02-26T04:03:28;100028.41;;;6.56;100.00
72612;BME280;60655;52.182;4.474;2024-02-26T04:05:28;100033.69;;;6.56;100.00
72612;BME280;60655;52.182;4.474;2024-02-26T04:07:29;100033.91;;;6.55;100.00
72612;BME280;60655;52.182;4.474;2024-02-26T04:09:33;100039.38;;;6.53;100.00
72612;BME280;60655;52.182;4.474;2024-02-26T04:11:34;100042.03;;;6.47;100.00
72612;BME280;60655;52.182;4.474;2024-02-26T04:13:35;100041.00;;;6.48;100.00
72612;BME280;60655;52.182;4.474;2024-02-26T04:15:36;100036.75;;;6.53;100.00
72612;BME280;60655;52.182;4.474;2024-02-26T04:17:37;100041.63;;;6.43;100.00
72612;BME280;60655;52.182;4.474;2024-02-26T04:19:39;100037.16;;;6.43;100.00
72612;BME280;60655;52.182;4.474;2024-02-26T04:21:41;100045.50;;;6.40;100.00
72612;BME280;60655;52.182;4.474;2024-02-26T04:23:42;100043.31;;;6.31;100.00
72612;BME280;60655;52.182;4.474;2024-02-26T04:25:42;100048.59;;;6.31;100.00
72612;BME280;60655;52.182;4.474;2024-02-26T04:27:43;100036.78;;;6.40;100.00
72612;BME280;60655;52.182;4.474;2024-02-26T04:29:44;100048.72;;;6.49;100.00
72612;BME280;60655;52.182;4.474;2024-02-26T04:31:45;100040.44;;;6.39;100.00
72612;BME280;60655;52.182;4.474;2024-02-26T04:33:47;100055.81;;;6.49;100.00
72612;BME280;60655;52.182;4.474;2024-02-26T04:35:48;100049.34;;;6.38;100.00
72612;BME280;60655;52.182;4.474;2024-02-26T04:37:49;100056.47;;;6.37;100.00
72612;BME280;60655;52.182;4.474;2024-02-26T04:39:49;100065.84;;;6.33;100.00
72612;BME280;60655;52.182;4.474;2024-02-26T04:41:50;100061.13;;;6.42;100.00
72612;BME280;60655;52.182;4.474;2024-02-26T04:43:51;100066.44;;;6.29;100.00
72612;BME280;60655;52.182;4.474;2024-02-26T04:45:52;100077.19;;;6.34;100.00
72612;BME280;60655;52.182;4.474;2024-02-26T04:47:54;100069.50;;;6.26;100.00
72612;BME280;60655;52.182;4.474;2024-02-26T04:49:54;100072.31;;;6.31;100.00
72612;BME280;60655;52.182;4.474;2024-02-26T04:51:55;100077.81;;;6.29;100.00
72612;BME280;60655;52.182;4.474;2024-02-26T04:53:56;100084.25;;;6.47;100.00
72612;BME280;60655;52.182;4.474;2024-02-26T04:55:57;100082.81;;;6.44;100.00
72612;BME280;60655;52.182;4.474;2024-02-26T04:57:58;100089.13;;;6.43;100.00
72612;BME280;60655;52.182;4.474;2024-02-26T04:59:59;100075.53;;;6.39;100.00
72612;BME280;60655;52.182;4.474;2024-02-26T05:02:00;100092.78;;;6.42;100.00
72612;BME280;60655;52.182;4.474;2024-02-26T05:04:01;100090.75;;;6.37;100.00
72612;BME280;60655;52.182;4.474;2024-02-26T05:06:02;100086.69;;;6.41;100.00
72612;BME280;60655;52.182;4.474;2024-02-26T05:08:03;100090.38;;;6.34;100.00
72612;BME280;60655;52.182;4.474;2024-02-26T05:10:04;100085.88;;;6.41;100.00
72612;BME280;60655;52.182;4.474;2024-02-26T05:12:06;100097.28;;;6.35;100.00
72612;BME280;60655;52.182;4.474;2024-02-26T05:14:07;100097.25;;;6.41;100.00
72612;BME280;60655;52.182;4.474;2024-02-26T05:16:08;100093.44;;;6.31;100.00
72612;BME280;60655;52.182;4.474;2024-02-26T05:18:09;100095.66;;;6.34;100.00
72612;BME280;60655;52.182;4.474;2024-02-26T05:20:10;100087.16;;;6.12;100.00
72612;BME280;60655;52.182;4.474;2024-02-26T05:22:11;100106.63;;;6.24;100.00
72612;BME280;60655;52.182;4.474;2024-02-26T05:24:12;100110.88;;;6.25;100.00
72612;BME280;60655;52.182;4.474;2024-02-26T05:26:22;100102.16;;;6.31;100.00
72612;BME280;60655;52.182;4.474;2024-02-26T05:28:23;100113.72;;;6.24;100.00
72612;BME280;60655;52.182;4.474;2024-02-26T05:30:24;100108.84;;;6.21;100.00
72612;BME280;60655;52.182;4.474;2024-02-26T05:32:25;100121.44;;;6.25;100.00
72612;BME280;60655;52.182;4.474;2024-02-26T05:34:26;100124.47;;;6.22;100.00
72612;BME280;60655;52.182;4.474;2024-02-26T05:36:26;100120.41;;;6.26;100.00
72612;BME280;60655;52.182;4.474;2024-02-26T05:38:29;100124.47;;;6.22;100.00
72612;BME280;60655;52.182;4.474;2024-02-26T05:40:30;100111.69;;;6.19;100.00
72612;BME280;60655;52.182;4.474;2024-02-26T05:42:31;100120.63;;;6.18;100.00
72612;BME280;60655;52.182;4.474;2024-02-26T05:44:32;100125.09;;;6.24;100.00
72612;BME280;60655;52.182;4.474;2024-02-26T05:46:33;100123.47;;;6.30;100.00
72612;BME280;60655;52.182;4.474;2024-02-26T05:48:33;100114.94;;;6.21;100.00
72612;BME280;60655;52.182;4.474;2024-02-26T05:50:34;100128.75;;;6.17;100.00
72612;BME280;60655;52.182;4.474;2024-02-26T05:52:35;100123.28;;;6.05;100.00
72612;BME280;60655;52.182;4.474;2024-02-26T05:54:36;100136.03;;;6.15;100.00
72612;BME280;60655;52.182;4.474;2024-02-26T05:56:37;100138.28;;;6.11;100.00
72612;BME280;60655;52.182;4.474;2024-02-26T05:58:38;100141.50;;;6.13;100.00
72612;BME280;60655;52.182;4.474;2024-02-26T06:00:39;100147.41;;;6.15;100.00
72612;BME280;60655;52.182;4.474;2024-02-26T06:02:40;100143.75;;;6.09;100.00
72612;BME280;60655;52.182;4.474;2024-02-26T06:04:41;100146.19;;;6.18;100.00
72612;BME280;60655;52.182;4.474;2024-02-26T06:06:42;100137.06;;;6.14;100.00
72612;BME280;60655;52.182;4.474;2024-02-26T06:08:43;100145.56;;;6.09;100.00
72612;BME280;60655;52.182;4.474;2024-02-26T06:10:44;100158.75;;;6.16;100.00
72612;BME280;60655;52.182;4.474;2024-02-26T06:12:45;100168.50;;;6.28;100.00
72612;BME280;60655;52.182;4.474;2024-02-26T06:14:46;100167.47;;;6.23;100.00
72612;BME280;60655;52.182;4.474;2024-02-26T06:16:47;100158.56;;;6.24;100.00
72612;BME280;60655;52.182;4.474;2024-02-26T06:18:49;100167.88;;;6.20;100.00
72612;BME280;60655;52.182;4.474;2024-02-26T06:20:49;100171.13;;;6.15;100.00
72612;BME280;60655;52.182;4.474;2024-02-26T06:22:51;100167.47;;;6.23;100.00
72612;BME280;60655;52.182;4.474;2024-02-26T06:24:52;100171.94;;;6.16;100.00
72612;BME280;60655;52.182;4.474;2024-02-26T06:26:53;100187.34;;;6.12;100.00
72612;BME280;60655;52.182;4.474;2024-02-26T06:28:54;100183.50;;;6.15;100.00
72612;BME280;60655;52.182;4.474;2024-02-26T06:30:55;100179.44;;;6.12;100.00
72612;BME280;60655;52.182;4.474;2024-02-26T06:32:56;100189.19;;;6.18;100.00
72612;BME280;60655;52.182;4.474;2024-02-26T06:34:57;100205.19;;;6.10;100.00
72612;BME280;60655;52.182;4.474;2024-02-26T06:36:58;100205.19;;;6.10;100.00
72612;BME280;60655;52.182;4.474;2024-02-26T06:38:58;100198.75;;;6.06;100.00
72612;BME280;60655;52.182;4.474;2024-02-26T06:41:00;100213.94;;;6.10;100.00
72612;BME280;60655;52.182;4.474;2024-02-26T06:43:00;100205.81;;;5.99;100.00
72612;BME280;60655;52.182;4.474;2024-02-26T06:45:01;100212.91;;;5.98;100.00
72612;BME280;60655;52.182;4.474;2024-02-26T06:47:02;100218.56;;;5.89;100.00
72612;BME280;60655;52.182;4.474;2024-02-26T06:49:03;100209.22;;;5.86;100.00
72612;BME280;60655;52.182;4.474;2024-02-26T06:51:04;100201.75;;;5.90;100.00
72612;BME280;60655;52.182;4.474;2024-02-26T06:53:05;100221.03;;;5.97;100.00
72612;BME280;60655;52.182;4.474;2024-02-26T06:55:08;100214.53;;;5.99;100.00
72612;BME280;60655;52.182;4.474;2024-02-26T06:57:09;100233.41;;;5.96;100.00
72612;BME280;60655;52.182;4.474;2024-02-26T06:59:10;100227.53;;;6.01;100.00
72612;BME280;60655;52.182;4.474;2024-02-26T07:01:11;100246.16;;;5.93;100.00
72612;BME280;60655;52.182;4.474;2024-02-26T07:03:12;100240.28;;;5.97;100.00
72612;BME280;60655;52.182;4.474;2024-02-26T07:05:14;100249.84;;;6.05;100.00
72612;BME280;60655;52.182;4.474;2024-02-26T07:07:15;100247.59;;;5.95;100.00
72612;BME280;60655;52.182;4.474;2024-02-26T07:09:18;100246.78;;;6.01;100.00
72612;BME280;60655;52.182;4.474;2024-02-26T07:11:19;100243.53;;;6.13;100.00
72612;BME280;60655;52.182;4.474;2024-02-26T07:13:20;100253.06;;;6.00;100.00
72612;BME280;60655;52.182;4.474;2024-02-26T07:15:21;100257.94;;;5.97;100.00
72612;BME280;60655;52.182;4.474;2024-02-26T07:17:22;100256.91;;;5.91;100.00
72612;BME280;60655;52.182;4.474;2024-02-26T07:19:23;100268.66;;;5.89;100.00
72612;BME280;60655;52.182;4.474;2024-02-26T07:21:24;100268.00;;;5.87;100.00
72612;BME280;60655;52.182;4.474;2024-02-26T07:23:25;100267.59;;;5.83;100.00
72612;BME280;60655;52.182;4.474;2024-02-26T07:25:26;100270.22;;;5.83;100.00
72612;BME280;60655;52.182;4.474;2024-02-26T07:27:26;100279.00;;;5.90;100.00
72612;BME280;60655;52.182;4.474;2024-02-26T07:29:27;100291.59;;;5.95;100.00
72612;BME280;60655;52.182;4.474;2024-02-26T07:31:28;100288.59;;;6.04;100.00
72612;BME280;60655;52.182;4.474;2024-02-26T07:33:29;100277.19;;;5.97;100.00
72612;BME280;60655;52.182;4.474;2024-02-26T07:35:30;100298.09;;;5.99;100.00
72612;BME280;60655;52.182;4.474;2024-02-26T07:37:33;100300.13;;;5.97;100.00
72612;BME280;60655;52.182;4.474;2024-02-26T07:39:34;100297.69;;;6.08;100.00
72612;BME280;60655;52.182;4.474;2024-02-26T07:41:34;100304.19;;;6.13;100.00
72612;BME280;60655;52.182;4.474;2024-02-26T07:43:35;100305.41;;;6.03;100.00
72612;BME280;60655;52.182;4.474;2024-02-26T07:45:36;100308.06;;;6.03;100.00
72612;BME280;60655;52.182;4.474;2024-02-26T07:47:37;100323.84;;;5.97;100.00
72612;BME280;60655;52.182;4.474;2024-02-26T07:49:41;100305.16;;;5.92;100.00
72612;BME280;60655;52.182;4.474;2024-02-26T07:51:42;100324.63;;;5.91;100.00
72612;BME280;60655;52.182;4.474;2024-02-26T07:53:43;100323.22;;;5.95;100.00
72612;BME280;60655;52.182;4.474;2024-02-26T07:55:44;100314.63;;;5.86;100.00
72612;BME280;60655;52.182;4.474;2024-02-26T07:57:45;100327.25;;;5.91;100.00
72612;BME280;60655;52.182;4.474;2024-02-26T07:59:45;100327.47;;;5.89;100.00
72612;BME280;60655;52.182;4.474;2024-02-26T08:01:50;100324.00;;;5.89;100.00
72612;BME280;60655;52.182;4.474;2024-02-26T08:03:53;100320.97;;;5.92;100.00
72612;BME280;60655;52.182;4.474;2024-02-26T08:05:54;100340.44;;;5.91;100.00
72612;BME280;60655;52.182;4.474;2024-02-26T08:07:55;100347.75;;;5.89;100.00
72612;BME280;60655;52.182;4.474;2024-02-26T08:09:56;100340.78;;;5.81;100.00
72612;BME280;60655;52.182;4.474;2024-02-26T08:11:58;100339.44;;;5.92;100.00
72612;BME280;60655;52.182;4.474;2024-02-26T08:13:58;100345.31;;;5.94;100.00
72612;BME280;60655;52.182;4.474;2024-02-26T08:15:59;100363.63;;;6.02;100.00
72612;BME280;60655;52.182;4.474;2024-02-26T08:18:00;100355.50;;;6.03;100.00
72612;BME280;60655;52.182;4.474;2024-02-26T08:20:04;100344.34;;;6.01;100.00
72612;BME280;60655;52.182;4.474;2024-02-26T08:22:06;100358.53;;;6.00;100.00
72612;BME280;60655;52.182;4.474;2024-02-26T08:24:07;100351.06;;;6.04;100.00
72612;BME280;60655;52.182;4.474;2024-02-26T08:26:08;100349.41;;;5.96;100.00
72612;BME280;60655;52.182;4.474;2024-02-26T08:28:11;100357.44;;;5.88;100.00
72612;BME280;60655;52.182;4.474;2024-02-26T08:30:15;100368.19;;;5.87;100.00
72612;BME280;60655;52.182;4.474;2024-02-26T08:32:17;100358.84;;;5.84;100.00
72612;BME280;60655;52.182;4.474;2024-02-26T08:34:18;100372.44;;;5.88;100.00
72612;BME280;60655;52.182;4.474;2024-02-26T08:36:19;100375.75;;;5.96;100.00
72612;BME280;60655;52.182;4.474;2024-02-26T08:38:21;100368.66;;;5.97;100.00
72612;BME280;60655;52.182;4.474;2024-02-26T08:40:21;100374.75;;;5.97;100.00
72612;BME280;60655;52.182;4.474;2024-02-26T08:42:22;100366.00;;;5.90;100.00
72612;BME280;60655;52.182;4.474;2024-02-26T08:44:25;100376.72;;;5.89;100.00
72612;BME280;60655;52.182;4.474;2024-02-26T08:46:27;100382.47;;;5.99;100.00
72612;BME280;60655;52.182;4.474;2024-02-26T08:48:27;100386.28;;;5.90;100.00
72612;BME280;60655;52.182;4.474;2024-02-26T08:50:28;100391.41;;;6.04;100.00
72612;BME280;60655;52.182;4.474;2024-02-26T08:52:29;100395.06;;;6.03;100.00
72612;BME280;60655;52.182;4.474;2024-02-26T08:54:30;100397.56;;;5.84;100.00
72612;BME280;60655;52.182;4.474;2024-02-26T08:56:32;100390.88;;;5.88;100.00
72612;BME280;60655;52.182;4.474;2024-02-26T08:58:33;100400.25;;;5.90;100.00
72612;BME280;60655;52.182;4.474;2024-02-26T09:00:34;100403.97;;;6.02;100.00
72612;BME280;60655;52.182;4.474;2024-02-26T09:02:35;100400.09;;;5.98;100.00
72612;BME280;60655;52.182;4.474;2024-02-26T09:04:35;100415.34;;;6.09;100.00
72612;BME280;60655;52.182;4.474;2024-02-26T09:06:36;100417.97;;;6.03;100.00
72612;BME280;60655;52.182;4.474;2024-02-26T09:08:37;100418.16;;;6.01;100.00
72612;BME280;60655;52.182;4.474;2024-02-26T09:10:38;100417.78;;;6.04;100.00
72612;BME280;60655;52.182;4.474;2024-02-26T09:12:40;100427.50;;;6.10;100.00
72612;BME280;60655;52.182;4.474;2024-02-26T09:14:41;100427.09;;;6.07;100.00
72612;BME280;60655;52.182;4.474;2024-02-26T09:16:41;100419.75;;;5.96;100.00
72612;BME280;60655;52.182;4.474;2024-02-26T09:18:42;100431.38;;;6.15;100.00
72612;BME280;60655;52.182;4.474;2024-02-26T09:20:43;100436.34;;;6.31;100.00
72612;BME280;60655;52.182;4.474;2024-02-26T09:22:44;100439.41;;;6.34;100.00
72612;BME280;60655;52.182;4.474;2024-02-26T09:24:45;100443.47;;;6.43;100.00
72612;BME280;60655;52.182;4.474;2024-02-26T09:26:46;100437.97;;;6.32;100.00
72612;BME280;60655;52.182;4.474;2024-02-26T09:28:47;100430.88;;;6.32;100.00
72612;BME280;60655;52.182;4.474;2024-02-26T09:30:48;100448.72;;;6.30;100.00
72612;BME280;60655;52.182;4.474;2024-02-26T09:32:49;100448.50;;;6.32;100.00
72612;BME280;60655;52.182;4.474;2024-02-26T09:34:50;100454.97;;;6.23;100.00
72612;BME280;60655;52.182;4.474;2024-02-26T09:36:51;100414.59;;;6.22;100.00
72612;BME280;60655;52.182;4.474;2024-02-26T09:38:52;100453.03;;;6.51;100.00
72612;BME280;60655;52.182;4.474;2024-02-26T09:40:53;100457.75;;;6.62;100.00
72612;BME280;60655;52.182;4.474;2024-02-26T09:42:58;100463.81;;;6.56;100.00
72612;BME280;60655;52.182;4.474;2024-02-26T09:45:00;100461.16;;;6.56;100.00
72612;BME280;60655;52.182;4.474;2024-02-26T09:47:05;100472.34;;;6.58;100.00
72612;BME280;60655;52.182;4.474;2024-02-26T09:49:08;100479.44;;;6.58;100.00
72612;BME280;60655;52.182;4.474;2024-02-26T09:51:10;100472.28;;;6.45;100.00
72612;BME280;60655;52.182;4.474;2024-02-26T09:53:12;100489.94;;;6.44;100.00
72612;BME280;60655;52.182;4.474;2024-02-26T09:55:14;100491.34;;;6.40;100.00
72612;BME280;60655;52.182;4.474;2024-02-26T09:57:16;100491.16;;;6.42;100.00
72612;BME280;60655;52.182;4.474;2024-02-26T09:59:18;100493.97;;;6.34;100.00
72612;BME280;60655;52.182;4.474;2024-02-26T10:01:19;100503.28;;;6.30;100.00
72612;BME280;60655;52.182;4.474;2024-02-26T10:03:22;100498.88;;;6.43;100.00
72612;BME280;60655;52.182;4.474;2024-02-26T10:05:27;100507.16;;;6.34;100.00
72612;BME280;60655;52.182;4.474;2024-02-26T10:07:30;100509.00;;;6.33;100.00
72612;BME280;60655;52.182;4.474;2024-02-26T10:09:31;100506.00;;;6.50;100.00
72612;BME280;60655;52.182;4.474;2024-02-26T10:11:32;100499.75;;;6.57;100.00
72612;BME280;60655;52.182;4.474;2024-02-26T10:13:36;100528.38;;;6.60;100.00
72612;BME280;60655;52.182;4.474;2024-02-26T10:15:37;100509.53;;;6.63;100.00
72612;BME280;60655;52.182;4.474;2024-02-26T10:17:38;100517.44;;;6.63;100.00
72612;BME280;60655;52.182;4.474;2024-02-26T10:19:40;100522.50;;;6.71;100.00
72612;BME280;60655;52.182;4.474;2024-02-26T10:21:41;100522.34;;;6.80;100.00
72612;BME280;60655;52.182;4.474;2024-02-26T10:23:42;100529.09;;;6.89;100.00
72612;BME280;60655;52.182;4.474;2024-02-26T10:25:55;100526.22;;;6.84;100.00
72612;BME280;60655;52.182;4.474;2024-02-26T10:27:59;100526.44;;;6.89;100.00
72612;BME280;60655;52.182;4.474;2024-02-26T10:30:03;100530.91;;;6.88;100.00
72612;BME280;60655;52.182;4.474;2024-02-26T10:32:05;100540.25;;;6.97;100.00
72612;BME280;60655;52.182;4.474;2024-02-26T10:34:07;100540.44;;;6.96;100.00
72612;BME280;60655;52.182;4.474;2024-02-26T10:36:08;100531.91;;;6.94;100.00